Terminal Aerodrome Forecast
Issued by NWS

Current Version | Previous Version | Text Only | Print | Product List | Glossary On
Versions: 1 2 3 4 5 6 7 8 9 10 11 12 13 14 15
000
FTUS44 KTSA 311300 AAA
TAFBVO
TAF AMD
KBVO 311311Z 3113/0112 VRB06KT P6SM OVC028
      TEMPO 3113/3116 BKN030
     FM311600 01011G20KT P6SM SKC
     FM010000 00000KT P6SM FEW250=

USA.gov is the U.S. government's official web portal to all federal, state and local government web resources and services.